Time;durP1;ratioP1;P1;durP2;ratioP2;P2;SDS_P1;SDS_P2;PMS_P1;PMS_P2;Temp;Humidity;BMP_temperature;BMP_pressure;BME280_temperature;BME280_humidity;BME280_pressure;Samples;Min_cycle;Max_cycle;Signal;HPM_P1;HPM_P2
2023/04/02 00:01:47;;;;;;;1.53;0.70;;;;;;;11.69;100.00;148977.81;5092037;28;20271;-61
2023/04/02 00:04:21;;;;;;;0.60;0.60;;;;;;;11.61;100.00;148568.47;5092253;28;20698;-62
2023/04/02 00:06:53;;;;;;;0.53;0.53;;;;;;;11.59;100.00;143423.09;5091974;28;20283;-62
2023/04/02 00:09:39;;;;;;;0.50;0.50;;;;;;;11.43;100.00;140508.69;5091913;28;20184;-62
2023/04/02 00:12:16;;;;;;;0.70;0.70;;;;;;;11.54;100.00;137994.72;5091881;28;20253;-61
2023/04/02 00:14:50;;;;;;;0.50;0.50;;;;;;;11.50;100.00;133591.50;5092208;28;20645;-61
2023/04/02 00:17:18;;;;;;;0.60;0.60;;;;;;;11.46;100.00;130922.44;5092283;28;20673;-63
2023/04/02 00:19:51;;;;;;;0.83;0.83;;;;;;;11.40;100.00;129912.94;5092004;28;20674;-62
2023/04/02 00:22:22;;;;;;;1.07;0.50;;;;;;;11.32;100.00;130891.31;5092008;28;20667;-63
2023/04/02 00:24:56;;;;;;;0.53;0.53;;;;;;;11.32;100.00;139595.72;5092003;28;20678;-62
2023/04/02 00:27:23;;;;;;;0.60;0.60;;;;;;;11.27;100.00;142642.81;5092132;28;20709;-62
2023/04/02 00:29:53;;;;;;;0.60;0.60;;;;;;;11.22;100.00;147529.41;5092018;28;20200;-63
2023/04/02 00:32:26;;;;;;;0.60;0.60;;;;;;;11.29;100.00;148877.84;5091702;28;20279;-62
2023/04/02 00:34:54;;;;;;;0.70;0.70;;;;;;;11.20;100.00;148856.34;5091902;28;20275;-63
2023/04/02 00:37:26;;;;;;;0.70;0.70;;;;;;;11.03;100.00;148813.41;5095938;28;20282;-62
2023/04/02 00:40:05;;;;;;;0.70;0.70;;;;;;;11.30;100.00;148881.66;5096286;28;20626;-62
2023/04/02 00:42:32;;;;;;;0.63;0.63;;;;;;;11.25;100.00;148869.00;5095654;28;20194;-62
2023/04/02 00:45:01;;;;;;;0.73;0.73;;;;;;;11.24;100.00;148865.25;5095753;28;20215;-62
2023/04/02 00:47:35;;;;;;;1.13;0.87;;;;;;;11.29;100.00;148879.13;5095650;28;20212;-62
2023/04/02 00:50:07;;;;;;;0.77;0.77;;;;;;;11.24;100.00;148866.53;5096043;28;20685;-62
2023/04/02 00:52:36;;;;;;;0.80;0.80;;;;;;;11.13;100.00;148837.38;5095646;28;20216;-62
2023/04/02 00:55:09;;;;;;;0.70;0.70;;;;;;;11.16;100.00;148846.25;5095509;28;20238;-62
2023/04/02 00:57:36;;;;;;;0.80;0.80;;;;;;;11.12;100.00;148836.13;5095870;28;20188;-62
2023/04/02 01:00:20;;;;;;;0.97;0.97;;;;;;;11.13;100.00;148837.38;5095769;28;20651;-62
2023/04/02 01:03:21;;;;;;;0.70;0.70;;;;;;;11.10;100.00;148831.09;5095283;28;20188;-62
2023/04/02 01:05:50;;;;;;;0.67;0.67;;;;;;;11.09;100.00;148828.56;5095452;28;20188;-62
2023/04/02 01:08:26;;;;;;;0.60;0.60;;;;;;;11.06;100.00;148820.97;5095320;28;20216;-61
2023/04/02 01:11:04;;;;;;;0.80;0.80;;;;;;;11.04;100.00;148815.91;5095096;28;20303;-61
2023/04/02 01:13:37;;;;;;;0.60;0.60;;;;;;;11.10;100.00;148829.81;5095591;28;20554;-63
2023/04/02 01:16:10;;;;;;;1.80;0.70;;;;;;;11.06;100.00;148820.97;5095171;28;20219;-62
2023/04/02 01:18:55;;;;;;;1.20;1.00;;;;;;;11.08;100.00;148824.75;5095545;28;20390;-62
2023/04/02 01:21:35;;;;;;;1.30;1.30;;;;;;;11.04;100.00;148814.63;5095059;28;20191;-63
2023/04/02 01:24:06;;;;;;;1.30;1.30;;;;;;;11.12;100.00;148836.13;5095398;28;20243;-62
2023/04/02 01:26:49;;;;;;;2.00;1.80;;;;;;;11.16;100.00;148846.25;5095307;28;20277;-63
2023/04/02 01:29:20;;;;;;;2.10;2.00;;;;;;;11.17;100.00;148848.78;5095674;28;20188;-63
2023/04/02 01:31:49;;;;;;;2.07;1.97;;;;;;;11.11;100.00;148833.63;5095824;28;20227;-62
2023/04/02 01:34:19;;;;;;;2.67;2.57;;;;;;;11.14;100.00;148841.19;5096332;28;20688;-63
2023/04/02 01:37:00;;;;;;;2.70;2.60;;;;;;;11.14;100.00;148841.19;5095808;28;20188;-62
2023/04/02 01:39:47;;;;;;;2.37;2.27;;;;;;;11.18;100.00;148851.31;5096876;28;20212;-62
2023/04/02 01:42:21;;;;;;;2.90;2.80;;;;;;;11.15;100.00;148843.75;5098242;28;20196;-62
2023/04/02 01:44:51;;;;;;;3.07;2.87;;;;;;;10.87;100.00;148772.91;5097101;28;20298;-63
2023/04/02 01:47:20;;;;;;;2.20;2.10;;;;;;;11.19;100.00;148853.84;5095894;28;20176;-62
2023/04/02 01:49:47;;;;;;;2.33;2.23;;;;;;;11.18;100.00;148850.03;5094646;28;20192;-62
2023/04/02 01:52:19;;;;;;;3.13;3.03;;;;;;;11.18;100.00;148851.31;5095742;28;20682;-62
2023/04/02 01:54:47;;;;;;;3.30;3.20;;;;;;;11.16;100.00;148845.00;5095446;28;20535;-63
2023/04/02 01:57:16;;;;;;;4.03;3.53;;;;;;;11.25;100.00;148867.75;5094915;28;20202;-62
2023/04/02 01:59:43;;;;;;;3.40;3.20;;;;;;;11.20;100.00;148856.34;5093467;28;20270;-62
2023/04/02 02:02:14;;;;;;;3.70;3.50;;;;;;;11.20;100.00;148855.13;5094860;28;20238;-62
2023/04/02 02:04:41;;;;;;;3.00;2.90;;;;;;;11.14;100.00;148841.19;5094408;28;20251;-63
2023/04/02 02:07:16;;;;;;;2.40;2.30;;;;;;;11.12;100.00;147539.47;5094845;28;20646;-62
2023/04/02 02:09:44;;;;;;;2.53;2.40;;;;;;;11.10;100.00;145086.06;5094517;28;20222;-62
2023/04/02 02:12:14;;;;;;;2.30;2.20;;;;;;;10.97;100.00;139032.56;5094316;28;20235;-62
2023/04/02 02:14:46;;;;;;;2.27;2.17;;;;;;;10.80;100.00;131773.31;5094376;28;20597;-63
2023/04/02 02:17:18;;;;;;;2.10;2.00;;;;;;;10.94;100.00;132469.41;5094022;28;20276;-62
2023/04/02 02:19:48;;;;;;;2.60;1.97;;;;;;;10.85;100.00;122162.00;5093781;28;20199;-62
2023/04/02 02:22:28;;;;;;;3.27;2.03;;;;;;;10.74;100.00;117173.16;5093918;28;20188;-61
2023/04/02 02:24:56;;;;;;;2.10;2.00;;;;;;;10.64;100.00;120131.47;5093963;28;20593;-61
2023/04/02 02:27:50;;;;;;;1.80;1.70;;;;;;;10.70;100.00;126108.34;5093765;28;20226;-62
2023/04/02 02:30:23;;;;;;;2.30;2.20;;;;;;;10.65;100.00;131740.81;5091875;28;20628;-62
2023/04/02 02:33:00;;;;;;;2.30;2.10;;;;;;;10.93;100.00;139534.44;5093596;28;20183;-62
2023/04/02 02:35:33;;;;;;;2.80;2.07;;;;;;;10.99;100.00;145137.09;5093535;28;20184;-61
2023/04/02 02:38:11;;;;;;;3.17;2.87;;;;;;;10.91;100.00;145780.53;5093579;28;20226;-62
2023/04/02 02:40:43;;;;;;;3.87;3.77;;;;;;;11.08;100.00;146093.94;5093780;28;20184;-61
2023/04/02 02:43:15;;;;;;;3.73;3.53;;;;;;;11.06;100.00;145850.38;5093711;28;20272;-64
2023/04/02 02:45:44;;;;;;;4.80;4.60;;;;;;;11.09;100.00;146461.47;5093361;28;20184;-61
2023/04/02 02:48:15;;;;;;;6.83;6.33;;;;;;;11.08;100.00;148826.00;5093635;28;20215;-62
2023/04/02 02:50:44;;;;;;;6.50;6.20;;;;;;;11.10;100.00;148831.09;5093376;28;20220;-61
2023/04/02 02:53:17;;;;;;;7.00;6.70;;;;;;;11.09;100.00;148827.28;5093226;28;20184;-62
2023/04/02 02:55:45;;;;;;;6.97;6.67;;;;;;;11.14;100.00;148841.19;5093068;28;20199;-61
2023/04/02 02:58:16;;;;;;;4.93;4.73;;;;;;;10.99;100.00;148803.25;5093100;28;20225;-61
2023/04/02 03:00:44;;;;;;;5.70;5.23;;;;;;;11.18;100.00;148851.31;5093058;28;20188;-61
2023/04/02 03:03:17;;;;;;;4.33;4.13;;;;;;;11.19;100.00;148853.84;5093186;28;20227;-62
2023/04/02 03:05:45;;;;;;;3.97;3.77;;;;;;;11.15;100.00;148842.47;5093003;28;20192;-62
2023/04/02 03:08:22;;;;;;;3.57;3.37;;;;;;;11.20;100.00;148856.34;5092989;28;20187;-62
2023/04/02 03:10:56;;;;;;;3.90;3.63;;;;;;;11.19;100.00;148852.59;5092754;28;20231;-61
2023/04/02 03:13:28;;;;;;;3.20;3.10;;;;;;;11.21;100.00;148858.91;5092931;28;20311;-61
2023/04/02 03:16:02;;;;;;;3.87;3.70;;;;;;;11.24;100.00;148866.53;5092778;28;20184;-63
2023/04/02 03:18:40;;;;;;;4.40;4.20;;;;;;;11.18;100.00;148851.31;5092788;28;20210;-62
2023/04/02 03:21:25;;;;;;;4.50;4.30;;;;;;;11.35;100.00;148894.31;5092972;28;20638;-61
2023/04/02 03:23:57;;;;;;;5.83;5.63;;;;;;;11.26;100.00;148871.56;5092965;28;20277;-62
2023/04/02 03:26:30;;;;;;;6.20;5.90;;;;;;;11.31;100.00;148884.22;5092569;28;20188;-63
2023/04/02 03:29:02;;;;;;;8.00;7.57;;;;;;;11.50;100.00;148929.75;5092844;28;20711;-62
2023/04/02 03:31:35;;;;;;;8.50;8.10;;;;;;;11.58;100.00;148950.00;5092636;28;20220;-62
2023/04/02 03:34:11;;;;;;;9.40;8.57;;;;;;;11.64;100.00;148966.41;5093018;28;20180;-62
2023/04/02 03:36:45;;;;;;;8.60;8.10;;;;;;;11.63;100.00;148962.59;5092751;28;20179;-61
2023/04/02 03:39:17;;;;;;;8.13;7.63;;;;;;;11.58;100.00;148950.00;5092654;28;20194;-62
2023/04/02 03:41:48;;;;;;;7.97;7.60;;;;;;;11.66;100.00;148970.22;5092452;28;20202;-62
2023/04/02 03:44:23;;;;;;;7.73;7.33;;;;;;;11.52;100.00;148934.78;5092531;28;20303;-62
2023/04/02 03:46:57;;;;;;;8.13;7.63;;;;;;;11.64;100.00;148965.16;5092519;28;20591;-62
2023/04/02 03:49:33;;;;;;;8.90;8.10;;;;;;;11.70;100.00;148980.34;5092306;28;20225;-62
2023/04/02 03:52:05;;;;;;;7.63;7.23;;;;;;;11.58;100.00;148950.00;5092401;28;20215;-62
2023/04/02 03:54:33;;;;;;;6.83;6.53;;;;;;;11.47;100.00;148923.41;5092306;28;20191;-62
2023/04/02 03:57:01;;;;;;;6.43;6.00;;;;;;;11.44;100.00;148915.81;5092362;28;20222;-62
2023/04/02 03:59:39;;;;;;;7.33;6.80;;;;;;;11.55;100.00;148943.63;5092070;28;20223;-62
2023/04/02 04:02:24;;;;;;;7.17;6.67;;;;;;;11.39;100.00;148903.16;5091955;28;20226;-62
2023/04/02 04:04:55;;;;;;;7.37;6.97;;;;;;;11.30;100.00;148881.66;5092091;28;20239;-61
2023/04/02 04:07:32;;;;;;;7.93;7.47;;;;;;;11.32;100.00;148885.47;5092297;28;20642;-62
2023/04/02 04:10:01;;;;;;;7.33;6.93;;;;;;;11.31;100.00;148884.22;5091759;28;20216;-62
2023/04/02 04:12:31;;;;;;;10.40;7.47;;;;;;;11.43;100.00;148913.28;5091669;28;20270;-62
2023/04/02 04:15:04;;;;;;;8.00;7.60;;;;;;;11.49;100.00;148927.22;5092173;28;20188;-61
2023/04/02 04:17:40;;;;;;;10.07;9.17;;;;;;;11.57;100.00;148947.44;5091802;28;20227;-62
2023/04/02 04:20:20;;;;;;;9.47;8.97;;;;;;;11.59;100.00;148953.75;5092175;28;20222;-62
2023/04/02 04:22:48;;;;;;;9.60;8.87;;;;;;;11.70;100.00;148980.34;5091655;28;20237;-63
2023/04/02 04:25:22;;;;;;;9.93;9.23;;;;;;;12.11;100.00;149084.16;5092102;28;20239;-62
2023/04/02 04:28:04;;;;;;;9.30;8.60;;;;;;;12.41;100.00;149157.56;5092004;28;20622;-64
2023/04/02 04:30:41;;;;;;;8.43;7.90;;;;;;;12.63;100.00;149213.25;5091700;28;20184;-62
2023/04/02 04:33:15;;;;;;;5.27;5.07;;;;;;;12.59;100.00;149203.16;5092031;28;20633;-62
2023/04/02 04:35:50;;;;;;;5.13;4.47;;;;;;;13.24;100.00;149366.53;5091703;28;20184;-62
2023/04/02 04:38:26;;;;;;;3.73;3.53;;;;;;;13.44;100.00;149415.97;5091772;28;20271;-62
2023/04/02 04:40:56;;;;;;;3.47;3.17;;;;;;;13.77;100.00;149498.31;5091943;28;20608;-62
2023/04/02 04:43:32;;;;;;;4.60;4.20;;;;;;;13.88;100.00;149526.16;5091937;28;20264;-63
2023/04/02 04:46:03;;;;;;;4.03;3.73;;;;;;;13.94;100.00;149542.66;5091778;28;20573;-62
2023/04/02 04:48:36;;;;;;;3.67;3.57;;;;;;;13.81;100.00;149508.44;5091556;28;20198;-63
2023/04/02 04:51:10;;;;;;;3.60;3.40;;;;;;;13.73;100.00;149489.44;5090199;28;20199;-62
2023/04/02 04:53:47;;;;;;;3.60;3.27;;;;;;;13.93;100.00;149538.84;5091526;28;20195;-62
2023/04/02 04:56:19;;;;;;;3.07;2.97;;;;;;;14.24;100.00;149616.19;5091951;28;20199;-61
2023/04/02 04:58:52;;;;;;;3.40;3.00;;;;;;;14.89;100.00;149781.09;5091393;28;20216;-62
2023/04/02 05:01:24;;;;;;;3.20;3.10;;;;;;;15.67;100.00;149975.22;5091691;28;20234;-61
2023/04/02 05:03:58;;;;;;;3.87;3.30;;;;;;;15.90;100.00;150033.63;5091773;28;20612;-62
2023/04/02 05:06:35;;;;;;;3.83;3.63;;;;;;;16.33;100.00;150141.53;5091535;28;20191;-62
2023/04/02 05:09:11;;;;;;;4.30;4.10;;;;;;;16.41;100.00;150161.84;5091565;28;20622;-62
2023/04/02 05:11:44;;;;;;;4.87;4.57;;;;;;;16.92;100.00;150290.16;5091327;28;20249;-62
2023/04/02 05:14:22;;;;;;;4.40;4.20;;;;;;;16.54;100.00;150194.84;5091291;28;20184;-62
2023/04/02 05:16:56;;;;;;;3.97;3.73;;;;;;;15.94;100.00;150045.03;5091752;28;20184;-62
2023/04/02 05:19:29;;;;;;;2.50;2.40;;;;;;;15.41;100.00;149911.72;5091256;28;20280;-61
2023/04/02 05:22:05;;;;;;;2.00;1.90;;;;;;;15.34;100.00;149893.97;5091624;28;20704;-62
2023/04/02 05:24:46;;;;;;;3.00;1.70;;;;;;;15.85;100.00;150022.19;5094801;28;20208;-61
2023/04/02 05:27:25;;;;;;;2.00;1.90;;;;;;;16.29;100.00;150131.38;5095502;28;20188;-62
2023/04/02 05:30:01;;;;;;;1.60;1.60;;;;;;;16.78;100.00;150255.84;5095158;28;20667;-62
2023/04/02 05:32:33;;;;;;;3.53;2.07;;;;;;;16.85;100.00;150273.63;5095123;28;20275;-62
2023/04/02 05:35:00;;;;;;;2.27;2.07;;;;;;;16.48;100.00;150179.59;5095032;28;20586;-62
2023/04/02 05:37:30;;;;;;;1.90;1.80;;;;;;;16.23;100.00;150116.13;5094698;28;20187;-61
2023/04/02 05:40:00;;;;;;;2.30;2.20;;;;;;;15.87;100.00;150027.25;5094745;28;20287;-61
2023/04/02 05:42:30;;;;;;;3.40;2.00;;;;;;;15.56;100.00;149948.59;5094580;28;20665;-62
2023/04/02 05:45:06;;;;;;;1.83;1.73;;;;;;;15.48;100.00;149928.25;5094452;28;20314;-62
2023/04/02 05:47:39;;;;;;;2.20;2.07;;;;;;;15.83;100.00;150015.81;5094857;28;20612;-62
2023/04/02 05:50:29;;;;;;;1.80;1.70;;;;;;;16.46;100.00;150175.78;5094527;28;20195;-63
2023/04/02 05:53:03;;;;;;;1.70;1.60;;;;;;;17.02;100.00;150314.25;5090539;28;20200;-62
2023/04/02 05:55:39;;;;;;;3.83;2.00;;;;;;;17.21;100.00;150362.56;5094442;28;20179;-63
2023/04/02 05:58:14;;;;;;;1.77;1.67;;;;;;;17.19;100.00;150357.47;5094503;28;20218;-64
2023/04/02 06:01:01;;;;;;;1.53;1.43;;;;;;;18.26;100.00;150626.97;5094404;28;20180;-63
2023/04/02 06:03:37;;;;;;;1.70;1.47;;;;;;;17.95;100.00;150549.41;5094241;28;20267;-63
2023/04/02 06:06:13;;;;;;;1.47;1.43;;;;;;;17.18;100.00;150354.94;5094331;28;20382;-62
2023/04/02 06:08:50;;;;;;;1.60;1.50;;;;;;;16.49;100.00;150182.16;5094076;28;20266;-62
2023/04/02 06:11:21;;;;;;;2.33;2.17;;;;;;;16.53;100.00;150191.03;5093972;28;20270;-61
2023/04/02 06:13:49;;;;;;;2.23;2.23;;;;;;;15.96;100.00;150050.09;5094247;28;20686;-63
2023/04/02 06:16:16;;;;;;;2.57;2.47;;;;;;;15.59;100.00;149954.91;5094118;28;20180;-61
2023/04/02 06:18:44;;;;;;;2.10;1.90;;;;;;;15.47;100.00;149925.69;5094600;28;20658;-62
2023/04/02 06:21:16;;;;;;;3.43;2.63;;;;;;;15.56;100.00;149948.59;5094206;28;20180;-62
2023/04/02 06:23:50;;;;;;;2.50;2.40;;;;;;;15.54;100.00;149944.75;5094074;28;20196;-61
2023/04/02 06:26:25;;;;;;;2.73;2.53;;;;;;;15.57;100.00;149951.13;5093958;28;20757;-62
2023/04/02 06:28:57;;;;;;;3.33;3.17;;;;;;;15.52;100.00;149938.44;5094055;28;20184;-62
2023/04/02 06:31:31;;;;;;;3.30;3.10;;;;;;;15.59;100.00;149956.19;5093934;28;20631;-61
2023/04/02 06:33:58;;;;;;;3.40;3.20;;;;;;;15.15;100.00;149844.50;5093111;28;20271;-62
2023/04/02 06:36:27;;;;;;;2.50;2.40;;;;;;;15.27;100.00;149876.22;5093645;28;20270;-62
2023/04/02 06:39:02;;;;;;;2.03;2.03;;;;;;;15.39;100.00;149905.41;5093807;28;20184;-61
2023/04/02 06:41:29;;;;;;;1.90;1.80;;;;;;;15.61;100.00;149960.00;5093827;28;20657;-62
2023/04/02 06:44:00;;;;;;;3.00;2.70;;;;;;;15.97;100.00;150051.38;5093701;28;20634;-61
2023/04/02 06:46:33;;;;;;;3.33;3.13;;;;;;;16.40;100.00;150160.56;5093289;28;20261;-62
2023/04/02 06:49:09;;;;;;;3.23;3.13;;;;;;;16.39;100.00;150158.00;5093627;28;20291;-62
2023/04/02 06:51:38;;;;;;;3.10;2.43;;;;;;;16.35;100.00;150146.59;5093164;28;20192;-60
2023/04/02 06:54:13;;;;;;;1.90;1.50;;;;;;;16.37;100.00;150151.69;5093271;28;20346;-62
2023/04/02 06:56:43;;;;;;;4.67;3.17;;;;;;;16.30;100.00;150135.16;5093547;28;20672;-61
2023/04/02 06:59:11;;;;;;;2.23;1.07;;;;;;;15.91;100.00;150037.41;5093193;28;20227;-61
2023/04/02 07:01:44;;;;;;;1.60;1.50;;;;;;;16.40;100.00;150159.28;5091889;28;20235;-62
2023/04/02 07:04:12;;;;;;;2.67;1.10;;;;;;;16.94;100.00;150295.22;5093167;28;20257;-62
2023/04/02 07:06:39;;;;;;;4.67;1.13;;;;;;;17.63;100.00;150469.34;5093280;28;20258;-62
2023/04/02 07:09:07;;;;;;;2.60;1.30;;;;;;;18.13;100.00;150593.91;5093281;28;20647;-63
2023/04/02 07:11:35;;;;;;;1.47;1.07;;;;;;;18.30;100.00;150635.88;5092914;28;20282;-62
2023/04/02 07:14:02;;;;;;;1.10;1.00;;;;;;;18.36;100.00;150652.41;5093086;28;20184;-63
2023/04/02 07:16:31;;;;;;;0.80;0.80;;;;;;;18.27;100.00;150629.53;5093226;28;20207;-63
2023/04/02 07:18:59;;;;;;;1.40;0.93;;;;;;;18.42;100.00;150667.66;5092844;28;20701;-62
2023/04/02 07:21:26;;;;;;;0.90;0.90;;;;;;;18.68;100.00;150732.56;5093156;28;20184;-62
2023/04/02 07:23:54;;;;;;;2.20;1.03;;;;;;;18.54;100.00;150698.22;5093107;28;20279;-63
2023/04/02 07:26:26;;;;;;;1.87;1.10;;;;;;;18.26;100.00;150626.97;5092946;28;20654;-63
2023/04/02 07:28:53;;;;;;;0.90;0.90;;;;;;;18.26;100.00;150626.97;5092637;28;20188;-63
2023/04/02 07:31:23;;;;;;;1.30;1.20;;;;;;;18.04;100.00;150572.28;5092641;28;20271;-62
2023/04/02 07:33:50;;;;;;;0.70;0.70;;;;;;;18.04;100.00;150571.00;5092537;28;20230;-63
2023/04/02 07:36:19;;;;;;;1.60;1.00;;;;;;;18.05;100.00;150573.56;5092618;28;20187;-63
2023/04/02 07:38:46;;;;;;;1.37;1.27;;;;;;;18.10;100.00;150587.56;5092775;28;20625;-62
2023/04/02 07:41:14;;;;;;;0.80;0.80;;;;;;;18.49;100.00;150684.22;5092518;28;20674;-62
2023/04/02 07:43:43;;;;;;;1.70;1.60;;;;;;;18.26;100.00;150626.97;5092239;28;20199;-62
2023/04/02 07:46:12;;;;;;;1.60;1.50;;;;;;;18.14;100.00;150597.75;5091678;28;20579;-62
2023/04/02 07:48:39;;;;;;;6.97;2.47;;;;;;;17.74;100.00;150497.28;5092168;28;20184;-62
2023/04/02 07:51:15;;;;;;;1.70;1.60;;;;;;;17.48;100.00;150431.19;5092264;28;20279;-62
2023/04/02 07:53:42;;;;;;;2.17;2.07;;;;;;;17.16;100.00;150349.84;5092207;28;20180;-62
2023/04/02 07:56:14;;;;;;;2.93;1.80;;;;;;;17.49;100.00;150433.69;5092193;28;20223;-61
2023/04/02 07:58:43;;;;;;;2.00;1.60;;;;;;;17.68;100.00;150482.06;5092253;28;20282;-61
2023/04/02 08:01:17;;;;;;;3.23;1.53;;;;;;;17.44;100.00;150419.75;5092315;28;20210;-62
2023/04/02 08:03:44;;;;;;;3.70;1.70;;;;;;;17.16;100.00;150349.84;5092259;28;20203;-61
2023/04/02 08:06:12;;;;;;;1.50;1.40;;;;;;;17.11;100.00;150337.13;5092332;28;20586;-61
2023/04/02 08:08:39;;;;;;;1.80;1.70;;;;;;;17.00;100.00;150310.47;5091297;28;20187;-62
2023/04/02 08:11:06;;;;;;;1.77;1.70;;;;;;;16.65;100.00;150221.56;5090640;28;20228;-61
2023/04/02 08:13:33;;;;;;;1.90;1.43;;;;;;;16.60;100.00;150210.13;5092113;28;20275;-61
2023/04/02 08:16:03;;;;;;;1.77;1.67;;;;;;;16.53;100.00;150192.31;5092212;28;20548;-62
2023/04/02 08:18:30;;;;;;;1.40;1.40;;;;;;;16.43;100.00;150168.16;5092013;28;20228;-62
2023/04/02 08:20:58;;;;;;;1.90;1.47;;;;;;;16.31;100.00;150136.44;5092149;28;20635;-62
2023/04/02 08:23:25;;;;;;;1.53;1.53;;;;;;;16.19;100.00;150105.97;5091814;28;20207;-62
2023/04/02 08:25:53;;;;;;;4.83;1.60;;;;;;;16.36;100.00;150150.41;5091643;28;20290;-61
2023/04/02 08:28:21;;;;;;;2.00;1.90;;;;;;;16.35;100.00;150146.59;5092030;28;20249;-62
2023/04/02 08:30:50;;;;;;;2.97;1.70;;;;;;;16.37;100.00;150151.69;5092011;28;20563;-62
2023/04/02 08:33:19;;;;;;;1.63;1.20;;;;;;;16.58;100.00;150205.06;5091644;28;20229;-62
2023/04/02 08:35:46;;;;;;;1.33;1.27;;;;;;;16.85;100.00;150273.63;5091533;28;20180;-62
2023/04/02 08:38:15;;;;;;;1.00;1.00;;;;;;;16.92;100.00;150288.88;5091822;28;20287;-61
2023/04/02 08:40:45;;;;;;;0.90;0.90;;;;;;;16.78;100.00;150254.56;5091614;28;20199;-62
2023/04/02 08:43:27;;;;;;;3.03;0.90;;;;;;;16.62;100.00;150215.22;5090345;28;20184;-62
2023/04/02 08:46:06;;;;;;;1.03;0.93;;;;;;;16.73;100.00;150241.88;5091984;28;20306;-61
2023/04/02 08:48:41;;;;;;;2.23;0.87;;;;;;;16.72;100.00;150239.38;5091722;28;20251;-62
2023/04/02 08:51:22;;;;;;;0.70;0.70;;;;;;;16.65;100.00;150221.56;5091337;28;20191;-61
2023/04/02 08:53:50;;;;;;;0.90;0.90;;;;;;;16.76;100.00;150250.75;5091989;28;20550;-62
2023/04/02 08:56:24;;;;;;;1.10;0.97;;;;;;;16.89;100.00;150282.50;5092450;28;20180;-62
2023/04/02 08:58:54;;;;;;;1.23;0.70;;;;;;;16.86;100.00;150276.19;5095726;28;20212;-62
2023/04/02 09:01:36;;;;;;;1.47;0.90;;;;;;;16.84;100.00;150271.13;5095425;28;20191;-60
2023/04/02 09:04:13;;;;;;;3.30;0.83;;;;;;;16.79;100.00;150257.13;5095416;28;20188;-61
2023/04/02 09:06:42;;;;;;;2.03;1.50;;;;;;;16.71;100.00;150236.81;5095551;28;20282;-61
2023/04/02 09:09:12;;;;;;;1.50;1.40;;;;;;;16.98;100.00;150304.09;5095726;28;20200;-64
2023/04/02 09:11:48;;;;;;;0.90;0.90;;;;;;;17.11;100.00;150337.13;5093963;28;20284;-62
2023/04/02 09:14:18;;;;;;;1.23;1.00;;;;;;;17.12;100.00;150340.97;5095308;28;20191;-62
2023/04/02 09:16:49;;;;;;;1.37;1.20;;;;;;;17.23;100.00;150368.91;5095473;28;20611;-62
2023/04/02 09:19:21;;;;;;;1.40;1.30;;;;;;;17.23;100.00;150368.91;5095827;28;20204;-62
2023/04/02 09:22:00;;;;;;;1.30;1.30;;;;;;;17.23;100.00;150368.91;5095431;28;20188;-62
2023/04/02 09:24:28;;;;;;;1.30;1.10;;;;;;;17.24;100.00;150371.44;5095417;28;20199;-62
2023/04/02 09:26:55;;;;;;;2.10;1.00;;;;;;;17.21;100.00;150363.84;5095194;28;20239;-62
2023/04/02 09:29:40;;;;;;;1.37;1.27;;;;;;;17.23;100.00;150368.91;5095397;28;20632;-62
2023/04/02 09:32:25;;;;;;;1.10;1.10;;;;;;;17.21;100.00;150362.56;5094653;28;20195;-61
2023/04/02 09:35:05;;;;;;;1.67;1.40;;;;;;;17.16;100.00;150349.84;5095970;28;20184;-63
2023/04/02 09:37:33;;;;;;;1.40;1.30;;;;;;;17.12;100.00;150340.97;5096474;28;20533;-62
2023/04/02 09:40:23;;;;;;;1.00;1.00;;;;;;;17.29;100.00;150382.88;5095844;28;20188;-62
2023/04/02 09:43:02;;;;;;;1.23;1.17;;;;;;;17.24;100.00;150370.16;5096390;28;20180;-63
2023/04/02 09:45:30;;;;;;;1.10;1.07;;;;;;;17.20;100.00;150361.28;5096084;28;20267;-62
2023/04/02 09:47:57;;;;;;;2.80;1.00;;;;;;;17.21;100.00;150362.56;5096155;28;20180;-62
2023/04/02 09:50:29;;;;;;;1.30;1.20;;;;;;;17.31;100.00;150389.22;5095700;28;20238;-62
2023/04/02 09:52:56;;;;;;;2.07;1.30;;;;;;;17.54;100.00;150446.41;5095357;28;20286;-62
2023/04/02 09:55:27;;;;;;;1.00;1.00;;;;;;;17.68;100.00;150482.06;5094937;28;20220;-62
2023/04/02 09:58:11;;;;;;;0.90;0.90;;;;;;;17.74;100.00;150497.28;5094821;28;20184;-62
2023/04/02 10:00:39;;;;;;;0.83;0.83;;;;;;;17.73;100.00;150493.50;5094744;28;20188;-62
2023/04/02 10:03:21;;;;;;;1.30;1.30;;;;;;;17.96;100.00;150550.69;5094875;28;20709;-62
2023/04/02 10:06:03;;;;;;;0.80;0.80;;;;;;;18.24;100.00;150621.91;5094631;28;20265;-61
2023/04/02 10:08:32;;;;;;;3.10;0.87;;;;;;;18.53;100.00;150694.44;5093575;28;20180;-62
2023/04/02 10:11:01;;;;;;;1.10;1.00;;;;;;;18.76;100.00;150752.91;5094386;28;20689;-61
2023/04/02 10:13:31;;;;;;;0.73;0.70;;;;;;;18.51;100.00;150690.53;5094440;28;20187;-62
2023/04/02 10:16:03;;;;;;;1.00;1.00;;;;;;;18.46;100.00;150677.81;5094252;28;20204;-62
2023/04/02 10:18:41;;;;;;;1.00;1.00;;;;;;;18.36;100.00;150651.13;5094222;28;20263;-61
2023/04/02 10:21:13;;;;;;;0.93;0.90;;;;;;;18.20;100.00;150611.75;5094310;28;20681;-62
2023/04/02 10:23:40;;;;;;;1.00;1.00;;;;;;;18.12;100.00;150592.63;5093939;28;20224;-62
2023/04/02 10:26:36;;;;;;;0.80;0.80;;;;;;;18.12;100.00;150591.41;5093766;28;20204;-61
2023/04/02 10:29:31;;;;;;;1.00;1.00;;;;;;;18.09;100.00;150583.75;5093938;28;20227;-62
2023/04/02 10:32:05;;;;;;;1.00;1.00;;;;;;;17.76;100.00;150502.41;5067716;28;20199;-63
2023/04/02 10:34:39;;;;;;;1.27;1.27;;;;;;;17.87;100.00;150527.78;5093640;28;20184;-62
2023/04/02 10:37:33;;;;;;;2.00;1.07;;;;;;;17.72;100.00;150492.22;5092784;28;20195;-61
2023/04/02 10:40:09;;;;;;;1.10;1.10;;;;;;;17.77;100.00;150503.69;5093467;28;20275;-62
2023/04/02 10:42:43;;;;;;;1.20;1.13;;;;;;;17.63;100.00;150468.06;5093803;28;20188;-62
2023/04/02 10:45:25;;;;;;;1.03;1.03;;;;;;;17.66;100.00;150475.69;5093809;28;20176;-61
2023/04/02 10:48:00;;;;;;;0.90;0.90;;;;;;;17.72;100.00;150490.97;5093326;28;20413;-61
2023/04/02 10:50:36;;;;;;;1.07;1.00;;;;;;;17.89;100.00;150532.91;5093438;28;20290;-62
2023/04/02 10:53:11;;;;;;;0.90;0.90;;;;;;;17.85;100.00;150522.72;5093570;28;20571;-62
2023/04/02 10:55:44;;;;;;;1.10;1.10;;;;;;;17.84;100.00;150520.19;5093517;28;20245;-62
2023/04/02 10:58:21;;;;;;;1.00;1.00;;;;;;;17.78;100.00;150506.19;5093190;28;20232;-62
2023/04/02 11:00:50;;;;;;;1.40;0.90;;;;;;;17.79;100.00;150508.72;5093550;28;20723;-62
2023/04/02 11:03:24;;;;;;;1.30;1.10;;;;;;;18.04;100.00;150572.28;5093193;28;20267;-62
2023/04/02 11:05:52;;;;;;;0.90;0.90;;;;;;;17.69;100.00;150484.63;5093284;28;20220;-61
2023/04/02 11:08:24;;;;;;;0.87;0.87;;;;;;;17.78;100.00;150506.19;5093267;28;20201;-62
2023/04/02 11:10:57;;;;;;;0.90;0.90;;;;;;;17.80;100.00;150511.28;5092773;28;20231;-63
2023/04/02 11:13:27;;;;;;;0.97;0.97;;;;;;;17.76;100.00;150501.13;5092904;28;20275;-61
2023/04/02 11:15:54;;;;;;;1.37;0.93;;;;;;;17.72;100.00;150492.22;5092819;28;20275;-62
2023/04/02 11:18:28;;;;;;;0.90;0.90;;;;;;;17.74;100.00;150497.28;5093096;28;20286;-61
2023/04/02 11:21:01;;;;;;;1.00;1.00;;;;;;;17.70;100.00;150485.84;5092972;28;20559;-62
2023/04/02 11:23:32;;;;;;;0.70;0.50;;;;;;;17.62;100.00;150466.81;5092931;28;20180;-61
2023/04/02 11:26:40;;;;;;;0.60;0.60;;;;;;;17.80;100.00;150512.56;5092829;28;20729;-62
2023/04/02 11:29:16;;;;;;;0.73;0.73;;;;;;;17.82;100.00;150515.13;5092621;28;20184;-62
2023/04/02 11:31:45;;;;;;;0.77;0.77;;;;;;;17.80;100.00;150512.56;5092629;28;20215;-62
2023/04/02 11:34:14;;;;;;;0.70;0.70;;;;;;;17.78;100.00;150507.47;5092751;28;20536;-63
2023/04/02 11:37:09;;;;;;;2.50;0.77;;;;;;;18.11;100.00;150588.84;5092482;28;20196;-62
2023/04/02 11:39:52;;;;;;;0.87;0.87;;;;;;;18.25;100.00;150624.41;5079238;28;20579;-62
2023/04/02 11:42:28;;;;;;;0.80;0.80;;;;;;;18.50;100.00;150686.75;5092372;28;20227;-62
2023/04/02 11:44:59;;;;;;;1.27;0.80;;;;;;;18.47;100.00;150680.38;5092241;28;20274;-63